createdAt,value
2022-12-15T00:00:02.927Z,18.10
2022-12-15T00:01:03.031Z,16.70
2022-12-15T00:02:03.040Z,17.60
2022-12-15T00:03:03.006Z,17.60
2022-12-15T00:04:02.880Z,18.40
2022-12-15T00:05:02.768Z,17.80
2022-12-15T00:06:02.740Z,17.00
2022-12-15T00:07:02.757Z,18.70
2022-12-15T00:08:02.677Z,17.30
2022-12-15T00:09:02.640Z,17.80
2022-12-15T00:10:02.611Z,18.40
2022-12-15T00:11:02.576Z,17.20
2022-12-15T00:12:02.551Z,17.10
2022-12-15T00:13:02.513Z,17.40
2022-12-15T00:14:02.488Z,18.10
2022-12-15T00:15:02.451Z,17.90
2022-12-15T00:16:02.506Z,17.10
2022-12-15T00:17:02.410Z,17.50
2022-12-15T00:18:02.358Z,17.20
2022-12-15T00:19:02.363Z,16.30
2022-12-15T00:20:02.301Z,16.90
2022-12-15T00:21:02.259Z,17.20
2022-12-15T00:22:02.233Z,18.10
2022-12-15T00:23:02.200Z,18.30
2022-12-15T00:24:02.178Z,17.50
2022-12-15T00:25:02.136Z,17.30
2022-12-15T00:26:02.109Z,18.20
2022-12-15T00:27:02.074Z,17.00
2022-12-15T00:28:02.051Z,18.00
2022-12-15T00:29:02.016Z,17.40
2022-12-15T00:30:01.985Z,18.70
2022-12-15T00:31:02.688Z,17.10
2022-12-15T00:32:01.982Z,16.80
2022-12-15T00:33:01.914Z,19.10
2022-12-15T00:34:01.863Z,18.00
2022-12-15T00:35:01.822Z,18.10
2022-12-15T00:36:01.798Z,17.80
2022-12-15T00:37:01.763Z,17.50
2022-12-15T00:38:01.731Z,18.20
2022-12-15T00:39:03.936Z,17.10
2022-12-15T00:40:01.676Z,17.80
2022-12-15T00:41:01.640Z,16.90
2022-12-15T00:42:01.607Z,16.90
2022-12-15T00:43:01.573Z,18.10
2022-12-15T00:44:01.547Z,17.40
2022-12-15T00:45:01.523Z,16.90
2022-12-15T00:46:01.529Z,16.90
2022-12-15T00:47:01.506Z,17.30
2022-12-15T00:48:01.423Z,17.60
2022-12-15T00:49:01.417Z,17.10
2022-12-15T00:50:01.354Z,17.70
2022-12-15T00:51:01.323Z,17.10
2022-12-15T00:52:01.298Z,17.20
2022-12-15T00:53:01.262Z,16.40
2022-12-15T00:54:01.232Z,17.70
2022-12-15T00:55:01.206Z,16.40
2022-12-15T00:56:01.175Z,17.20
2022-12-15T00:57:01.133Z,16.90
2022-12-15T00:58:01.104Z,17.40
2022-12-15T00:59:01.073Z,17.20
2022-12-15T01:00:01.051Z,18.00
2022-12-15T01:01:01.008Z,17.40
2022-12-15T01:02:01.119Z,17.20
2022-12-15T01:03:01.173Z,16.30
2022-12-15T01:04:00.955Z,16.60
2022-12-15T01:05:00.911Z,17.30
2022-12-15T01:06:00.856Z,17.00
2022-12-15T01:07:00.825Z,17.00
2022-12-15T01:08:00.791Z,16.20
2022-12-15T01:09:00.764Z,18.00
2022-12-15T01:10:00.730Z,17.70
2022-12-15T01:11:00.698Z,17.00
2022-12-15T01:12:00.667Z,17.40
2022-12-15T01:13:00.641Z,16.30
2022-12-15T01:14:00.609Z,16.60
2022-12-15T01:15:00.587Z,17.20
2022-12-15T01:16:00.600Z,16.90
2022-12-15T01:17:00.508Z,17.70
2022-12-15T01:18:00.482Z,17.30
2022-12-15T01:19:00.451Z,16.10
2022-12-15T01:20:00.420Z,16.60
2022-12-15T01:21:00.403Z,16.70
2022-12-15T01:22:00.362Z,16.80
2022-12-15T01:23:00.322Z,16.50
2022-12-15T01:24:00.291Z,17.20
2022-12-15T01:25:00.268Z,16.80
2022-12-15T01:26:00.227Z,16.30
2022-12-15T01:27:00.196Z,16.20
2022-12-15T01:28:00.175Z,17.70
2022-12-15T01:29:00.130Z,16.40
2022-12-15T01:30:00.101Z,16.00
2022-12-15T01:31:00.162Z,17.10
2022-12-15T01:32:00.118Z,17.70
2022-12-15T01:33:00.008Z,17.30
2022-12-15T01:33:59.982Z,17.20
2022-12-15T01:34:59.943Z,17.10
2022-12-15T01:35:59.925Z,15.50
2022-12-15T01:37:00.010Z,16.50
2022-12-15T01:37:59.855Z,16.10
2022-12-15T01:38:59.823Z,16.40
2022-12-15T01:39:59.795Z,16.50
2022-12-15T01:40:59.759Z,16.30
2022-12-15T01:41:59.728Z,16.90
2022-12-15T01:42:59.700Z,15.90
2022-12-15T01:43:59.667Z,18.30
2022-12-15T01:44:59.633Z,16.60
2022-12-15T01:45:59.604Z,15.80
2022-12-15T01:46:59.677Z,16.10
2022-12-15T01:47:59.545Z,17.00
2022-12-15T01:48:59.512Z,16.40
2022-12-15T01:49:59.484Z,16.80
2022-12-15T01:50:59.441Z,16.40
2022-12-15T01:51:59.423Z,16.90
2022-12-15T01:52:59.404Z,16.40
2022-12-15T01:53:59.355Z,15.90
2022-12-15T01:54:59.315Z,16.50
2022-12-15T01:55:59.290Z,16.40
2022-12-15T01:56:59.261Z,16.50
2022-12-15T01:57:59.227Z,15.60
2022-12-15T01:58:59.194Z,16.20
2022-12-15T01:59:59.169Z,16.80
2022-12-15T02:00:59.198Z,17.30
2022-12-15T02:01:59.307Z,15.90
2022-12-15T02:02:59.287Z,15.50
2022-12-15T02:03:59.036Z,16.40
2022-12-15T02:04:59.009Z,16.30
2022-12-15T02:05:58.976Z,16.30
2022-12-15T02:06:58.944Z,15.60
2022-12-15T02:07:58.922Z,16.00
2022-12-15T02:08:59.126Z,16.90
2022-12-15T02:09:58.868Z,17.20
2022-12-15T02:10:58.819Z,15.90
2022-12-15T02:11:58.813Z,17.30
2022-12-15T02:12:58.760Z,16.20
2022-12-15T02:13:58.728Z,17.90
2022-12-15T02:14:58.696Z,16.10
2022-12-15T02:15:58.723Z,16.00
2022-12-15T02:16:58.632Z,16.10
2022-12-15T02:17:58.599Z,15.60
2022-12-15T02:18:58.565Z,15.90
2022-12-15T02:19:58.540Z,16.20
2022-12-15T02:20:58.505Z,15.70
2022-12-15T02:21:58.478Z,15.90
2022-12-15T02:22:58.442Z,17.00
2022-12-15T02:23:58.417Z,17.20
2022-12-15T02:24:58.408Z,15.70
2022-12-15T02:25:58.352Z,16.50
2022-12-15T02:26:58.319Z,16.30
2022-12-15T02:27:58.290Z,16.40
2022-12-15T02:28:58.254Z,15.70
2022-12-15T02:29:58.248Z,15.30
2022-12-15T02:30:58.190Z,17.10
2022-12-15T02:31:58.283Z,16.00
2022-12-15T02:32:58.125Z,16.40
2022-12-15T02:33:58.100Z,16.80
2022-12-15T02:34:58.065Z,16.20
2022-12-15T02:35:58.041Z,15.60
2022-12-15T02:36:58.004Z,17.10
2022-12-15T02:37:57.976Z,17.10
2022-12-15T02:38:57.940Z,16.20
2022-12-15T02:39:57.916Z,17.10
2022-12-15T02:40:57.901Z,16.60
2022-12-15T02:41:57.861Z,17.10
2022-12-15T02:42:57.814Z,17.20
2022-12-15T02:43:57.790Z,16.50
2022-12-15T02:44:57.755Z,17.30
2022-12-15T02:45:57.823Z,16.40
2022-12-15T02:46:57.687Z,16.50
2022-12-15T02:47:57.656Z,16.50
2022-12-15T02:48:57.627Z,16.20
2022-12-15T02:49:57.796Z,16.70
2022-12-15T02:50:57.566Z,15.20
2022-12-15T02:51:57.531Z,17.40
2022-12-15T02:52:57.507Z,15.70
2022-12-15T02:53:57.475Z,16.20
2022-12-15T02:54:57.445Z,16.60
2022-12-15T02:55:57.403Z,16.80
2022-12-15T02:56:57.413Z,17.00
2022-12-15T02:57:57.341Z,17.40
2022-12-15T02:58:57.319Z,17.00
2022-12-15T02:59:57.289Z,16.50
2022-12-15T03:00:57.347Z,17.20
2022-12-15T03:01:57.446Z,17.10
2022-12-15T03:02:57.312Z,17.20
2022-12-15T03:03:57.156Z,16.40
2022-12-15T03:04:57.131Z,16.20
2022-12-15T03:05:57.092Z,16.70
2022-12-15T03:07:00.829Z,16.50
2022-12-15T03:07:57.047Z,16.90
2022-12-15T03:08:57.004Z,17.50
2022-12-15T03:09:56.970Z,17.80
2022-12-15T03:10:56.942Z,16.90
2022-12-15T03:11:56.909Z,17.40
2022-12-15T03:12:56.902Z,17.20
2022-12-15T03:13:56.845Z,17.50
2022-12-15T03:14:56.815Z,18.10
2022-12-15T03:15:56.787Z,17.10
2022-12-15T03:16:56.837Z,17.00
2022-12-15T03:17:56.718Z,17.30
2022-12-15T03:18:56.693Z,17.10
2022-12-15T03:19:56.652Z,18.40
2022-12-15T03:20:56.630Z,17.00
2022-12-15T03:21:56.589Z,16.40
2022-12-15T03:22:56.562Z,16.60
2022-12-15T03:23:56.529Z,16.80
2022-12-15T03:24:56.498Z,17.50
2022-12-15T03:25:56.465Z,15.50
2022-12-15T03:26:56.435Z,17.20
2022-12-15T03:27:56.409Z,17.50
2022-12-15T03:28:56.402Z,17.20
2022-12-15T03:29:56.341Z,17.70
2022-12-15T03:30:56.320Z,17.70
2022-12-15T03:31:56.368Z,17.80
2022-12-15T03:32:56.249Z,17.40
2022-12-15T03:33:56.210Z,17.30
2022-12-15T03:34:56.185Z,17.80
2022-12-15T03:35:56.149Z,17.10
2022-12-15T03:36:56.124Z,18.70
2022-12-15T03:37:56.088Z,17.20
2022-12-15T03:38:56.060Z,17.70
2022-12-15T03:39:56.029Z,18.60
2022-12-15T03:40:55.996Z,17.70
2022-12-15T03:41:55.964Z,18.40
2022-12-15T03:42:55.938Z,18.20
2022-12-15T03:43:55.901Z,18.70
2022-12-15T03:44:55.896Z,18.30
2022-12-15T03:45:55.974Z,17.30
2022-12-15T03:47:01.291Z,18.30
2022-12-15T03:47:55.778Z,17.10
2022-12-15T03:48:55.750Z,17.80
2022-12-15T03:49:55.709Z,18.60
2022-12-15T03:50:55.682Z,19.00
2022-12-15T03:51:55.647Z,18.60
2022-12-15T03:52:55.629Z,17.50
2022-12-15T03:53:55.583Z,18.60
2022-12-15T03:54:55.557Z,18.30
2022-12-15T03:55:55.521Z,18.20
2022-12-15T03:56:55.499Z,18.70
2022-12-15T03:57:55.463Z,18.20
2022-12-15T03:58:55.435Z,17.60
2022-12-15T03:59:55.405Z,18.50
2022-12-15T04:00:55.485Z,17.90
2022-12-15T04:01:55.493Z,18.20
2022-12-15T04:02:55.385Z,18.40
2022-12-15T04:04:00.228Z,18.30
2022-12-15T04:04:55.242Z,18.60
2022-12-15T04:05:55.209Z,18.70
2022-12-15T04:06:55.180Z,17.70
2022-12-15T04:07:55.146Z,18.10
2022-12-15T04:08:55.117Z,18.00
2022-12-15T04:09:55.086Z,17.60
2022-12-15T04:10:55.057Z,17.70
2022-12-15T04:11:55.063Z,19.20
2022-12-15T04:12:54.992Z,19.00
2022-12-15T04:13:54.956Z,18.90
2022-12-15T04:14:54.927Z,19.20
2022-12-15T04:15:54.896Z,19.20
2022-12-15T04:16:55.073Z,18.10
2022-12-15T04:17:54.837Z,18.40
2022-12-15T04:18:54.809Z,18.10
2022-12-15T04:19:54.772Z,19.50
2022-12-15T04:20:54.745Z,18.40
2022-12-15T04:21:54.709Z,19.00
2022-12-15T04:22:54.687Z,18.70
2022-12-15T04:23:54.644Z,18.50
2022-12-15T04:24:54.615Z,18.10
2022-12-15T04:25:54.584Z,18.60
2022-12-15T04:26:54.552Z,18.70
2022-12-15T04:27:59.846Z,18.40
2022-12-15T04:28:54.493Z,19.20
2022-12-15T04:29:54.456Z,18.60
2022-12-15T04:30:54.450Z,18.70
2022-12-15T04:31:54.392Z,20.00
2022-12-15T04:32:54.389Z,18.50
2022-12-15T04:33:54.327Z,18.10
2022-12-15T04:34:54.301Z,17.90
2022-12-15T04:35:54.267Z,18.90
2022-12-15T04:36:54.237Z,19.00
2022-12-15T04:37:54.202Z,18.80
2022-12-15T04:38:54.174Z,18.80
2022-12-15T04:39:54.142Z,19.20
2022-12-15T04:40:54.113Z,18.30
2022-12-15T04:41:54.080Z,18.60
2022-12-15T04:42:54.051Z,18.80
2022-12-15T04:43:54.015Z,18.50
2022-12-15T04:44:53.986Z,18.30
2022-12-15T04:45:54.018Z,17.40
2022-12-15T04:46:53.931Z,19.40
2022-12-15T04:47:53.896Z,18.60
2022-12-15T04:48:53.881Z,18.70
2022-12-15T04:49:53.831Z,18.00
2022-12-15T04:50:53.800Z,19.90
2022-12-15T04:51:53.765Z,19.00
2022-12-15T04:52:53.738Z,20.30
2022-12-15T04:53:53.702Z,18.70
2022-12-15T04:54:53.671Z,20.00
2022-12-15T04:55:53.641Z,19.20
2022-12-15T04:56:53.612Z,19.80
2022-12-15T04:57:53.578Z,20.20
2022-12-15T04:58:53.550Z,18.80
2022-12-15T04:59:53.514Z,19.90
2022-12-15T05:00:53.482Z,19.00
2022-12-15T05:01:53.761Z,19.70
2022-12-15T05:02:53.419Z,19.20
2022-12-15T05:03:53.499Z,19.40
2022-12-15T05:04:53.471Z,19.80
2022-12-15T05:05:53.327Z,20.70
2022-12-15T05:06:53.295Z,19.90
2022-12-15T05:07:53.259Z,18.80
2022-12-15T05:08:53.233Z,19.20
2022-12-15T05:09:53.201Z,18.70
2022-12-15T05:10:53.171Z,17.90
2022-12-15T05:11:53.131Z,19.00
2022-12-15T05:12:53.106Z,19.40
2022-12-15T05:13:53.070Z,20.00
2022-12-15T05:14:53.039Z,20.00
2022-12-15T05:15:53.062Z,20.30
2022-12-15T05:16:53.016Z,18.90
2022-12-15T05:17:52.956Z,20.10
2022-12-15T05:18:52.917Z,19.90
2022-12-15T05:19:52.879Z,20.30
2022-12-15T05:20:52.877Z,19.60
2022-12-15T05:21:52.814Z,19.70
2022-12-15T05:22:52.792Z,19.70
2022-12-15T05:23:52.754Z,19.90
2022-12-15T05:24:52.728Z,19.40
2022-12-15T05:25:52.691Z,19.70
2022-12-15T05:26:53.476Z,20.00
2022-12-15T05:27:52.630Z,20.00
2022-12-15T05:28:52.599Z,19.70
2022-12-15T05:29:52.561Z,18.70
2022-12-15T05:30:52.576Z,20.30
2022-12-15T05:31:52.505Z,20.30
2022-12-15T05:32:52.475Z,20.50
2022-12-15T05:33:52.443Z,21.30
2022-12-15T05:34:52.410Z,20.40
2022-12-15T05:35:52.377Z,20.80
2022-12-15T05:36:52.370Z,20.00
2022-12-15T05:37:52.317Z,20.20
2022-12-15T05:38:52.284Z,19.90
2022-12-15T05:39:52.252Z,20.00
2022-12-15T05:40:52.220Z,20.80
2022-12-15T05:41:52.190Z,20.50
2022-12-15T05:42:52.158Z,20.50
2022-12-15T05:43:52.124Z,21.40
2022-12-15T05:44:52.096Z,20.30
2022-12-15T05:45:52.094Z,20.40
2022-12-15T05:46:52.152Z,20.50
2022-12-15T05:47:51.999Z,20.00
2022-12-15T05:48:51.971Z,20.00
2022-12-15T05:49:51.942Z,21.30
2022-12-15T05:50:51.905Z,20.60
2022-12-15T05:51:51.876Z,20.70
2022-12-15T05:52:51.874Z,20.40
2022-12-15T05:53:51.813Z,20.00
2022-12-15T05:54:51.784Z,20.50
2022-12-15T05:55:51.745Z,20.30
2022-12-15T05:56:51.722Z,20.40
2022-12-15T05:57:51.680Z,20.00
2022-12-15T05:58:51.656Z,21.40
2022-12-15T05:59:51.624Z,20.20
2022-12-15T06:00:51.594Z,21.20
2022-12-15T06:01:51.700Z,21.00
2022-12-15T06:02:51.631Z,20.30
2022-12-15T06:03:51.496Z,21.00
2022-12-15T06:04:51.523Z,21.40
2022-12-15T06:05:56.334Z,21.30
2022-12-15T06:06:51.402Z,21.30
2022-12-15T06:07:51.366Z,22.30
2022-12-15T06:08:51.362Z,20.70
2022-12-15T06:09:51.305Z,20.10
2022-12-15T06:10:51.280Z,21.50
2022-12-15T06:11:51.241Z,20.80
2022-12-15T06:12:51.209Z,21.20
2022-12-15T06:13:51.177Z,21.10
2022-12-15T06:14:51.149Z,22.00
2022-12-15T06:15:51.146Z,21.90
2022-12-15T06:16:51.757Z,21.50
2022-12-15T06:17:51.055Z,22.50
2022-12-15T06:18:51.021Z,21.20
2022-12-15T06:19:50.993Z,20.60
2022-12-15T06:20:50.960Z,21.70
2022-12-15T06:21:50.928Z,21.50
2022-12-15T06:22:50.894Z,21.90
2022-12-15T06:23:50.864Z,21.50
2022-12-15T06:24:50.861Z,21.80
2022-12-15T06:25:50.801Z,21.30
2022-12-15T06:26:50.766Z,22.50
2022-12-15T06:27:50.740Z,22.10
2022-12-15T06:28:50.708Z,20.90
2022-12-15T06:29:50.670Z,20.50
2022-12-15T06:30:50.642Z,20.40
2022-12-15T06:31:50.665Z,21.20
2022-12-15T06:32:50.578Z,20.30
2022-12-15T06:33:52.491Z,21.50
2022-12-15T06:34:50.521Z,21.60
2022-12-15T06:35:50.486Z,21.10
2022-12-15T06:36:50.480Z,21.50
2022-12-15T06:37:50.416Z,22.00
2022-12-15T06:38:50.392Z,20.90
2022-12-15T06:39:50.356Z,21.20
2022-12-15T06:40:50.350Z,22.40
2022-12-15T06:41:50.291Z,22.00
2022-12-15T06:42:50.265Z,21.10
2022-12-15T06:43:50.237Z,22.20
2022-12-15T06:44:50.207Z,22.30
2022-12-15T06:45:50.174Z,22.80
2022-12-15T06:46:50.227Z,22.20
2022-12-15T06:47:50.105Z,22.70
2022-12-15T06:48:50.078Z,21.30
2022-12-15T06:49:50.042Z,21.60
2022-12-15T06:50:50.317Z,21.50
2022-12-15T06:51:49.984Z,21.50
2022-12-15T06:52:49.955Z,21.30
2022-12-15T06:53:49.944Z,21.70
2022-12-15T06:54:49.882Z,21.80
2022-12-15T06:55:49.850Z,23.60
2022-12-15T06:56:50.217Z,20.50
2022-12-15T06:57:49.787Z,22.30
2022-12-15T06:58:49.759Z,21.50
2022-12-15T06:59:49.731Z,21.30
2022-12-15T07:00:49.710Z,22.00
2022-12-15T07:01:49.905Z,22.40
2022-12-15T07:02:50.094Z,22.20
2022-12-15T07:03:49.892Z,22.20
2022-12-15T07:04:49.565Z,21.50
2022-12-15T07:05:49.540Z,22.70
2022-12-15T07:06:49.513Z,22.90
2022-12-15T07:07:49.477Z,22.40
2022-12-15T07:08:49.675Z,22.40
2022-12-15T07:09:49.409Z,22.30
2022-12-15T07:10:49.379Z,21.90
2022-12-15T07:11:49.384Z,21.70
2022-12-15T07:12:49.360Z,22.00
2022-12-15T07:13:49.287Z,22.70
2022-12-15T07:14:53.430Z,21.50
2022-12-15T07:15:49.268Z,21.70
2022-12-15T07:16:49.197Z,23.10
2022-12-15T07:17:49.165Z,23.60
2022-12-15T07:18:49.133Z,23.90
2022-12-15T07:19:49.097Z,23.40
2022-12-15T07:20:49.865Z,22.40
2022-12-15T07:21:49.039Z,24.00
2022-12-15T07:22:49.006Z,24.20
2022-12-15T07:23:57.347Z,24.20
2022-12-15T07:24:48.939Z,22.80
2022-12-15T07:25:48.910Z,23.00
2022-12-15T07:26:49.151Z,23.10
2022-12-15T07:27:48.848Z,22.70
2022-12-15T07:28:48.929Z,23.50
2022-12-15T07:29:48.777Z,24.90
2022-12-15T07:30:48.748Z,23.70
2022-12-15T07:31:48.816Z,24.40
2022-12-15T07:32:50.168Z,23.80
2022-12-15T07:33:48.834Z,23.10
2022-12-15T07:34:48.633Z,23.10
2022-12-15T07:35:48.595Z,23.90
2022-12-15T07:36:52.118Z,24.80
2022-12-15T07:37:48.528Z,24.30
2022-12-15T07:38:50.761Z,23.20
2022-12-15T07:39:48.466Z,23.90
2022-12-15T07:40:48.430Z,27.10
2022-12-15T07:41:48.401Z,24.70
2022-12-15T07:42:48.375Z,24.30
2022-12-15T07:43:48.425Z,24.50
2022-12-15T07:44:49.953Z,24.40
2022-12-15T07:45:51.448Z,24.50
2022-12-15T07:46:48.244Z,25.00
2022-12-15T07:47:48.213Z,24.30
2022-12-15T07:48:50.333Z,24.10
2022-12-15T07:49:48.150Z,24.70
2022-12-15T07:50:48.118Z,23.60
2022-12-15T07:51:48.099Z,24.40
2022-12-15T07:52:48.054Z,23.50
2022-12-15T07:53:48.030Z,24.30
2022-12-15T07:54:47.993Z,24.40
2022-12-15T07:56:06.109Z,24.50
2022-12-15T07:56:50.151Z,24.00
2022-12-15T07:57:47.901Z,24.00
2022-12-15T07:58:47.873Z,23.80
2022-12-15T07:59:47.834Z,25.40
2022-12-15T08:00:49.063Z,24.20
2022-12-15T08:01:47.968Z,24.20
2022-12-15T08:02:47.997Z,24.40
2022-12-15T08:03:47.748Z,25.10
2022-12-15T08:04:48.142Z,25.10
2022-12-15T08:05:47.646Z,25.40
2022-12-15T08:06:47.613Z,24.50
2022-12-15T08:07:47.588Z,25.00
2022-12-15T08:08:50.719Z,25.10
2022-12-15T08:09:47.527Z,24.90
2022-12-15T08:10:47.483Z,25.20
2022-12-15T08:11:47.456Z,26.10
2022-12-15T08:12:47.428Z,25.00
2022-12-15T08:14:04.437Z,27.20
2022-12-15T08:14:50.230Z,24.90
2022-12-15T08:15:47.332Z,24.30
2022-12-15T08:16:47.466Z,25.40
2022-12-15T08:17:47.266Z,25.30
2022-12-15T08:18:47.233Z,24.80
2022-12-15T08:19:47.210Z,23.80
2022-12-15T08:20:50.359Z,25.40
2022-12-15T08:21:47.143Z,25.40
2022-12-15T08:22:47.110Z,24.00
2022-12-15T08:23:47.074Z,24.00
2022-12-15T08:24:47.042Z,24.20
2022-12-15T08:25:47.023Z,25.10
2022-12-15T08:26:49.896Z,25.40
2022-12-15T08:27:46.956Z,24.60
2022-12-15T08:28:46.911Z,25.40
2022-12-15T08:29:51.457Z,24.40
2022-12-15T08:30:46.853Z,25.60
2022-12-15T08:31:46.914Z,25.70
2022-12-15T08:32:51.737Z,31.70
2022-12-15T08:33:46.761Z,30.80
2022-12-15T08:34:46.734Z,32.30
2022-12-15T08:35:56.801Z,30.10
2022-12-15T08:36:46.671Z,25.50
2022-12-15T08:37:46.643Z,26.50
2022-12-15T08:38:46.603Z,26.00
2022-12-15T08:39:46.580Z,36.20
2022-12-15T08:40:46.541Z,32.00
2022-12-15T08:41:46.518Z,27.00
2022-12-15T08:42:46.478Z,38.50
2022-12-15T08:43:49.069Z,44.70
2022-12-15T08:44:46.419Z,31.30
2022-12-15T08:45:46.461Z,28.30
2022-12-15T08:46:46.352Z,54.90
2022-12-15T08:47:46.331Z,54.30
2022-12-15T08:48:46.312Z,45.10
2022-12-15T08:49:46.262Z,41.50
2022-12-15T08:50:46.226Z,33.20
2022-12-15T08:51:46.204Z,41.30
2022-12-15T08:53:06.578Z,63.60
2022-12-15T08:53:46.690Z,35.10
2022-12-15T08:54:46.103Z,59.70
2022-12-15T08:55:46.072Z,36.90
2022-12-15T08:56:46.040Z,25.90
2022-12-15T08:57:46.013Z,27.50
2022-12-15T08:58:45.980Z,25.60
2022-12-15T08:59:45.946Z,26.20
2022-12-15T09:00:45.965Z,26.40
2022-12-15T09:01:46.016Z,26.70
2022-12-15T09:02:45.937Z,26.90
2022-12-15T09:03:45.829Z,27.70
2022-12-15T09:04:45.946Z,26.00
2022-12-15T09:05:45.764Z,26.70
2022-12-15T09:06:50.359Z,27.10
2022-12-15T09:07:45.700Z,26.10
2022-12-15T09:08:48.542Z,27.30
2022-12-15T09:09:45.648Z,27.20
2022-12-15T09:10:45.605Z,27.00
2022-12-15T09:11:45.576Z,27.00
2022-12-15T09:12:45.536Z,27.00
2022-12-15T09:13:45.506Z,27.50
2022-12-15T09:14:45.475Z,27.60
2022-12-15T09:16:08.891Z,27.50
2022-12-15T09:16:45.566Z,28.30
2022-12-15T09:17:45.388Z,29.10
2022-12-15T09:18:45.350Z,27.10
2022-12-15T09:19:45.329Z,27.00
2022-12-15T09:20:45.412Z,27.90
2022-12-15T09:21:45.263Z,26.50
2022-12-15T09:22:45.224Z,28.00
2022-12-15T09:23:45.198Z,28.10
2022-12-15T09:24:45.164Z,27.90
2022-12-15T09:25:45.135Z,26.70
2022-12-15T09:26:45.096Z,27.60
2022-12-15T09:27:45.073Z,29.10
2022-12-15T09:28:45.042Z,27.10
2022-12-15T09:29:45.009Z,28.00
2022-12-15T09:30:45.012Z,28.50
2022-12-15T09:31:44.949Z,27.50
2022-12-15T09:32:44.914Z,28.70
2022-12-15T09:33:44.898Z,28.70
2022-12-15T09:34:44.855Z,29.10
2022-12-15T09:35:44.826Z,29.70
2022-12-15T09:36:44.809Z,29.00
2022-12-15T09:37:49.967Z,29.50
2022-12-15T09:38:44.729Z,29.00
2022-12-15T09:39:44.701Z,30.60
2022-12-15T09:40:44.665Z,28.70
2022-12-15T09:41:44.635Z,29.30
2022-12-15T09:42:44.973Z,30.50
2022-12-15T09:43:47.408Z,30.60
2022-12-15T09:44:44.548Z,31.30
2022-12-15T09:45:44.573Z,31.80
2022-12-15T09:46:44.474Z,30.90
2022-12-15T09:47:44.450Z,30.60
2022-12-15T09:48:44.415Z,30.10
2022-12-15T09:49:44.387Z,30.20
2022-12-15T09:50:44.361Z,32.50
2022-12-15T09:51:44.321Z,30.80
2022-12-15T09:52:44.324Z,30.80
2022-12-15T09:54:00.044Z,29.30
2022-12-15T09:54:44.328Z,30.30
2022-12-15T09:55:44.200Z,31.00
2022-12-15T09:56:44.164Z,31.10
2022-12-15T09:57:44.140Z,30.50
2022-12-15T09:58:44.108Z,29.90
2022-12-15T09:59:44.077Z,30.40
2022-12-15T10:00:45.752Z,29.50
2022-12-15T10:01:44.121Z,30.40
2022-12-15T10:02:44.045Z,29.70
2022-12-15T10:03:44.052Z,29.70
2022-12-15T10:04:43.920Z,30.10
2022-12-15T10:06:07.110Z,30.20
2022-12-15T10:06:43.855Z,30.10
2022-12-15T10:07:43.824Z,30.10
2022-12-15T10:08:43.818Z,29.70
2022-12-15T10:09:43.762Z,31.10
2022-12-15T10:10:43.737Z,31.20
2022-12-15T10:11:43.704Z,31.30
2022-12-15T10:12:54.817Z,29.90
2022-12-15T10:13:43.644Z,29.80
2022-12-15T10:14:43.606Z,30.80
2022-12-15T10:15:43.619Z,30.40
2022-12-15T10:16:43.547Z,31.80
2022-12-15T10:17:43.514Z,31.40
2022-12-15T10:18:43.480Z,32.10
2022-12-15T10:19:43.458Z,31.00
2022-12-15T10:20:43.417Z,30.60
2022-12-15T10:21:43.395Z,31.30
2022-12-15T10:22:43.356Z,30.50
2022-12-15T10:23:43.401Z,31.10
2022-12-15T10:25:11.950Z,31.20
2022-12-15T10:25:43.267Z,58.00
2022-12-15T10:26:43.229Z,30.60
2022-12-15T10:27:43.207Z,32.00
2022-12-15T10:28:43.169Z,31.80
2022-12-15T10:29:43.245Z,31.80
2022-12-15T10:30:43.164Z,32.70
2022-12-15T10:31:43.085Z,31.20
2022-12-15T10:32:43.210Z,38.70
2022-12-15T10:33:48.574Z,33.40
2022-12-15T10:34:43.036Z,30.90
2022-12-15T10:35:42.970Z,30.80
2022-12-15T10:36:42.922Z,35.30
2022-12-15T10:37:42.895Z,32.20
2022-12-15T10:38:42.863Z,33.10
2022-12-15T10:39:42.833Z,30.90
2022-12-15T10:40:42.827Z,35.50
2022-12-15T10:41:42.776Z,30.60
2022-12-15T10:42:42.737Z,33.70
2022-12-15T10:43:42.710Z,32.00
2022-12-15T10:44:42.677Z,33.30
2022-12-15T10:45:42.653Z,32.10
2022-12-15T10:46:42.724Z,31.40
2022-12-15T10:47:42.587Z,31.10
2022-12-15T10:48:42.545Z,31.50
2022-12-15T10:49:42.521Z,32.90
2022-12-15T10:50:42.490Z,32.90
2022-12-15T10:51:42.475Z,31.70
2022-12-15T10:52:42.425Z,33.30
2022-12-15T10:53:42.398Z,33.70
2022-12-15T10:54:42.376Z,33.30
2022-12-15T10:55:42.442Z,34.10
2022-12-15T10:56:42.337Z,38.00
2022-12-15T10:57:42.278Z,34.50
2022-12-15T10:58:42.245Z,33.00
2022-12-15T10:59:42.215Z,32.70
2022-12-15T11:00:42.174Z,33.90
2022-12-15T11:01:42.282Z,32.40
2022-12-15T11:02:42.377Z,32.30
2022-12-15T11:03:42.378Z,33.30
2022-12-15T11:04:42.060Z,31.40
2022-12-15T11:05:42.071Z,31.70
2022-12-15T11:06:41.995Z,36.00
2022-12-15T11:07:41.967Z,38.70
2022-12-15T11:08:41.933Z,38.60
2022-12-15T11:09:41.903Z,35.10
2022-12-15T11:10:41.870Z,32.50
2022-12-15T11:11:45.107Z,31.40
2022-12-15T11:12:41.831Z,31.50
2022-12-15T11:13:42.442Z,31.90
2022-12-15T11:14:41.753Z,32.40
2022-12-15T11:15:41.888Z,31.90
2022-12-15T11:16:41.689Z,31.20
2022-12-15T11:17:41.665Z,31.40
2022-12-15T11:18:41.623Z,34.90
2022-12-15T11:19:41.593Z,38.80
2022-12-15T11:20:41.567Z,31.90
2022-12-15T11:21:41.535Z,32.50
2022-12-15T11:22:41.506Z,32.70
2022-12-15T11:23:46.637Z,33.20
2022-12-15T11:24:41.444Z,32.40
2022-12-15T11:25:41.414Z,31.60
2022-12-15T11:26:41.383Z,34.30
2022-12-15T11:27:41.353Z,33.10
2022-12-15T11:28:41.341Z,34.20
2022-12-15T11:29:41.297Z,33.80
2022-12-15T11:30:41.259Z,31.70
2022-12-15T11:31:41.241Z,32.60
2022-12-15T11:32:41.200Z,32.40
2022-12-15T11:33:41.168Z,30.70
2022-12-15T11:34:41.138Z,32.00
2022-12-15T11:35:41.138Z,32.20
2022-12-15T11:36:41.078Z,32.70
2022-12-15T11:37:41.059Z,31.60
2022-12-15T11:38:41.064Z,30.20
2022-12-15T11:39:40.987Z,31.50
2022-12-15T11:40:40.958Z,32.20
2022-12-15T11:41:40.922Z,31.90
2022-12-15T11:42:40.891Z,32.30
2022-12-15T11:43:40.863Z,30.20
2022-12-15T11:44:40.858Z,32.10
2022-12-15T11:45:41.069Z,31.60
2022-12-15T11:46:40.778Z,32.00
2022-12-15T11:47:40.765Z,31.10
2022-12-15T11:48:40.718Z,31.30
2022-12-15T11:49:41.500Z,30.70
2022-12-15T11:50:40.654Z,29.70
2022-12-15T11:51:40.621Z,29.70
2022-12-15T11:52:40.592Z,30.90
2022-12-15T11:53:40.563Z,29.80
2022-12-15T11:54:40.538Z,29.90
2022-12-15T11:55:41.640Z,30.50
2022-12-15T11:56:40.469Z,30.30
2022-12-15T11:57:40.439Z,31.80
2022-12-15T11:58:40.413Z,29.90
2022-12-15T11:59:40.377Z,30.10
2022-12-15T12:00:40.365Z,29.80
2022-12-15T12:01:45.484Z,31.10
2022-12-15T12:02:40.406Z,30.40
2022-12-15T12:03:40.268Z,28.90
2022-12-15T12:04:40.227Z,29.50
2022-12-15T12:05:40.192Z,29.00
2022-12-15T12:06:40.168Z,29.50
2022-12-15T12:07:42.155Z,29.10
2022-12-15T12:08:40.104Z,27.80
2022-12-15T12:09:40.068Z,29.10
2022-12-15T12:10:40.122Z,29.00
2022-12-15T12:11:40.012Z,29.10
2022-12-15T12:12:39.982Z,28.80
2022-12-15T12:13:39.953Z,30.20
2022-12-15T12:14:39.925Z,29.50
2022-12-15T12:15:39.888Z,27.70
2022-12-15T12:16:39.896Z,29.00
2022-12-15T12:17:39.831Z,30.90
2022-12-15T12:18:39.904Z,30.40
2022-12-15T12:19:39.765Z,28.50
2022-12-15T12:20:39.737Z,30.10
2022-12-15T12:21:39.705Z,29.40
2022-12-15T12:22:39.681Z,28.10
2022-12-15T12:23:39.649Z,28.40
2022-12-15T12:24:39.617Z,28.80
2022-12-15T12:25:39.587Z,28.60
2022-12-15T12:26:39.559Z,29.70
2022-12-15T12:27:39.528Z,30.10
2022-12-15T12:28:39.498Z,27.20
2022-12-15T12:29:39.469Z,30.50
2022-12-15T12:30:39.447Z,28.50
2022-12-15T12:31:39.410Z,28.50
2022-12-15T12:32:39.404Z,28.60
2022-12-15T12:33:39.349Z,28.70
2022-12-15T12:34:39.342Z,29.20
2022-12-15T12:35:39.291Z,27.70
2022-12-15T12:36:39.263Z,27.60
2022-12-15T12:37:39.228Z,28.30
2022-12-15T12:38:39.208Z,29.70
2022-12-15T12:39:39.163Z,29.10
2022-12-15T12:40:39.134Z,30.10
2022-12-15T12:41:39.105Z,29.60
2022-12-15T12:42:39.080Z,28.50
2022-12-15T12:43:39.046Z,29.00
2022-12-15T12:44:39.019Z,29.70
2022-12-15T12:45:38.983Z,28.70
2022-12-15T12:46:38.955Z,29.10
2022-12-15T12:47:38.925Z,29.50
2022-12-15T12:48:38.917Z,30.20
2022-12-15T12:49:38.873Z,28.60
2022-12-15T12:50:38.837Z,29.50
2022-12-15T12:51:38.807Z,29.40